AVA8539 SKBO-SKPE
Flight info
| Callsign | AVA8539 |
|---|---|
| Flight time | 0h 26m |
| Altitude | 18000 |
| Route | ISNOX2S ISNOX ISNOX1C |
| Aircraft | A320/M-SDE3FGHIRWY/LB1 |
Departure
| Time | 2026-05-06 00:24 |
|---|---|
| Airport | El Dorado International Airport (SKBO) |
Arrival
| Time | 2026-05-06 00:50 |
|---|---|
| Airport | Matecaña International Airport (SKPE) |
| Time | Latitude | Longitude | Altitude | Speed | Heading |
|---|---|---|---|---|---|
| 2026-05-05 23:59 | 4.69830 | -74.14584 | 8373 ft | 0 kts | 66° |
| 2026-05-06 00:12 | 4.69826 | -74.14593 | 8373 ft | 3 kts | 67° |
| 2026-05-06 00:12 | 4.69818 | -74.14613 | 8373 ft | 2 kts | 67° |
| 2026-05-06 00:12 | 4.69810 | -74.14627 | 8371 ft | 3 kts | 12° |
| 2026-05-06 00:13 | 4.69792 | -74.14624 | 8373 ft | 3 kts | 327° |
| 2026-05-06 00:13 | 4.69774 | -74.14610 | 8373 ft | 3 kts | 313° |
| 2026-05-06 00:13 | 4.69771 | -74.14608 | 8373 ft | 3 kts | 307° |
| 2026-05-06 00:13 | 4.69785 | -74.14626 | 8373 ft | 3 kts | 307° |
| 2026-05-06 00:14 | 4.69791 | -74.14634 | 8373 ft | 0 kts | 307° |
| 2026-05-06 00:16 | 4.69792 | -74.14635 | 8373 ft | 1 kts | 307° |
| 2026-05-06 00:17 | 4.69805 | -74.14653 | 8373 ft | 5 kts | 308° |
| 2026-05-06 00:17 | 4.69836 | -74.14691 | 8373 ft | 9 kts | 307° |
| 2026-05-06 00:17 | 4.69879 | -74.14751 | 8373 ft | 12 kts | 306° |
| 2026-05-06 00:17 | 4.69934 | -74.14826 | 8372 ft | 13 kts | 306° |
| 2026-05-06 00:18 | 4.69931 | -74.14889 | 8372 ft | 10 kts | 221° |
| 2026-05-06 00:18 | 4.69878 | -74.14928 | 8372 ft | 9 kts | 217° |
| 2026-05-06 00:18 | 4.69864 | -74.14981 | 8373 ft | 8 kts | 291° |
| 2026-05-06 00:18 | 4.69892 | -74.15023 | 8372 ft | 7 kts | 307° |
| 2026-05-06 00:19 | 4.69917 | -74.15057 | 8372 ft | 5 kts | 306° |
| 2026-05-06 00:19 | 4.69941 | -74.15089 | 8370 ft | 7 kts | 307° |
| 2026-05-06 00:19 | 4.69978 | -74.15137 | 8371 ft | 11 kts | 308° |
| 2026-05-06 00:19 | 4.70037 | -74.15215 | 8372 ft | 17 kts | 307° |
| 2026-05-06 00:20 | 4.70114 | -74.15318 | 8373 ft | 20 kts | 307° |
| 2026-05-06 00:20 | 4.70199 | -74.15431 | 8370 ft | 21 kts | 308° |
| 2026-05-06 00:20 | 4.70292 | -74.15551 | 8373 ft | 22 kts | 307° |
| 2026-05-06 00:20 | 4.70387 | -74.15679 | 8373 ft | 24 kts | 307° |
| 2026-05-06 00:21 | 4.70487 | -74.15811 | 8373 ft | 24 kts | 307° |
| 2026-05-06 00:21 | 4.70592 | -74.15950 | 8372 ft | 26 kts | 307° |
| 2026-05-06 00:21 | 4.70702 | -74.16094 | 8374 ft | 26 kts | 307° |
| 2026-05-06 00:21 | 4.70815 | -74.16241 | 8374 ft | 26 kts | 307° |
| 2026-05-06 00:22 | 4.70903 | -74.16362 | 8374 ft | 21 kts | 307° |
| 2026-05-06 00:22 | 4.70987 | -74.16471 | 8371 ft | 17 kts | 307° |
| 2026-05-06 00:22 | 4.71057 | -74.16563 | 8373 ft | 17 kts | 307° |
| 2026-05-06 00:22 | 4.71133 | -74.16663 | 8371 ft | 19 kts | 307° |
| 2026-05-06 00:23 | 4.71200 | -74.16772 | 8373 ft | 17 kts | 274° |
| 2026-05-06 00:23 | 4.71116 | -74.16856 | 8373 ft | 19 kts | 214° |
| 2026-05-06 00:23 | 4.71005 | -74.16845 | 8373 ft | 19 kts | 129° |
| 2026-05-06 00:23 | 4.70818 | -74.16602 | 8374 ft | 79 kts | 127° |
| 2026-05-06 00:24 | 4.70353 | -74.15988 | 8372 ft | 140 kts | 127° |
| 2026-05-06 00:24 | 4.69660 | -74.15077 | 8473 ft | 180 kts | 127° |
| 2026-05-06 00:24 | 4.68906 | -74.14077 | 9220 ft | 180 kts | 127° |
| 2026-05-06 00:24 | 4.67970 | -74.13276 | 9885 ft | 180 kts | 164° |
| 2026-05-06 00:25 | 4.66759 | -74.13359 | 10461 ft | 182 kts | 206° |
| 2026-05-06 00:25 | 4.65841 | -74.14213 | 11034 ft | 183 kts | 237° |
| 2026-05-06 00:25 | 4.65150 | -74.15296 | 11576 ft | 187 kts | 236° |
| 2026-05-06 00:25 | 4.64402 | -74.16451 | 11805 ft | 209 kts | 236° |
| 2026-05-06 00:26 | 4.63564 | -74.17733 | 12002 ft | 231 kts | 235° |
| 2026-05-06 00:26 | 4.62629 | -74.19152 | 12307 ft | 254 kts | 236° |
| 2026-05-06 00:26 | 4.61690 | -74.20678 | 12997 ft | 261 kts | 246° |
| 2026-05-06 00:26 | 4.61178 | -74.22494 | 13427 ft | 284 kts | 258° |
| 2026-05-06 00:27 | 4.60776 | -74.24520 | 13750 ft | 308 kts | 259° |
| 2026-05-06 00:27 | 4.60359 | -74.26682 | 14236 ft | 322 kts | 256° |
| 2026-05-06 00:27 | 4.59545 | -74.28789 | 14942 ft | 327 kts | 242° |
| 2026-05-06 00:27 | 4.58480 | -74.30822 | 15703 ft | 331 kts | 241° |
| 2026-05-06 00:28 | 4.57616 | -74.32984 | 16402 ft | 339 kts | 258° |
| 2026-05-06 00:28 | 4.57343 | -74.35344 | 17050 ft | 347 kts | 265° |
| 2026-05-06 00:28 | 4.57143 | -74.37833 | 17201 ft | 369 kts | 265° |
| 2026-05-06 00:28 | 4.56946 | -74.40471 | 17382 ft | 388 kts | 265° |
| 2026-05-06 00:29 | 4.56746 | -74.43206 | 17716 ft | 397 kts | 266° |
| 2026-05-06 00:29 | 4.56541 | -74.46002 | 17761 ft | 408 kts | 265° |
| 2026-05-06 00:29 | 4.56330 | -74.48855 | 17735 ft | 412 kts | 265° |
| 2026-05-06 00:29 | 4.56115 | -74.51720 | 17704 ft | 413 kts | 265° |
| 2026-05-06 00:30 | 4.55897 | -74.54592 | 17678 ft | 413 kts | 265° |
| 2026-05-06 00:30 | 4.55678 | -74.57464 | 17649 ft | 413 kts | 265° |
| 2026-05-06 00:30 | 4.55458 | -74.60336 | 17625 ft | 413 kts | 265° |
| 2026-05-06 00:30 | 4.55235 | -74.63201 | 17604 ft | 412 kts | 265° |
| 2026-05-06 00:31 | 4.55007 | -74.66071 | 17586 ft | 413 kts | 265° |
| 2026-05-06 00:31 | 4.54784 | -74.68936 | 17563 ft | 412 kts | 265° |
| 2026-05-06 00:31 | 4.54561 | -74.71799 | 17559 ft | 412 kts | 265° |
| 2026-05-06 00:31 | 4.54323 | -74.74662 | 17557 ft | 412 kts | 265° |
| 2026-05-06 00:32 | 4.54074 | -74.77521 | 17548 ft | 412 kts | 265° |
| 2026-05-06 00:32 | 4.53822 | -74.80378 | 17547 ft | 412 kts | 265° |
| 2026-05-06 00:32 | 4.53569 | -74.83237 | 17550 ft | 412 kts | 265° |
| 2026-05-06 00:32 | 4.53318 | -74.86095 | 17558 ft | 412 kts | 265° |
| 2026-05-06 00:33 | 4.53070 | -74.88952 | 17561 ft | 412 kts | 265° |
| 2026-05-06 00:33 | 4.52823 | -74.91807 | 17566 ft | 411 kts | 265° |
| 2026-05-06 00:33 | 4.52574 | -74.94664 | 17572 ft | 411 kts | 265° |
| 2026-05-06 00:33 | 4.52327 | -74.97520 | 17579 ft | 411 kts | 265° |
| 2026-05-06 00:34 | 4.52083 | -75.00335 | 17587 ft | 411 kts | 265° |
| 2026-05-06 00:34 | 4.51832 | -75.03225 | 17588 ft | 411 kts | 265° |
| 2026-05-06 00:34 | 4.51586 | -75.06081 | 17599 ft | 411 kts | 265° |
| 2026-05-06 00:34 | 4.51345 | -75.08889 | 17609 ft | 410 kts | 265° |
| 2026-05-06 00:35 | 4.51101 | -75.11740 | 17613 ft | 411 kts | 265° |
| 2026-05-06 00:35 | 4.50853 | -75.14593 | 17622 ft | 411 kts | 265° |
| 2026-05-06 00:35 | 4.50605 | -75.17444 | 17630 ft | 411 kts | 265° |
| 2026-05-06 00:35 | 4.50359 | -75.20294 | 17634 ft | 411 kts | 265° |
| 2026-05-06 00:36 | 4.50110 | -75.23177 | 17637 ft | 410 kts | 264° |
| 2026-05-06 00:36 | 4.49865 | -75.25989 | 17642 ft | 410 kts | 265° |
| 2026-05-06 00:36 | 4.49615 | -75.28834 | 17650 ft | 410 kts | 265° |
| 2026-05-06 00:36 | 4.49368 | -75.31687 | 17642 ft | 411 kts | 265° |
| 2026-05-06 00:37 | 4.49124 | -75.34521 | 17491 ft | 403 kts | 265° |
| 2026-05-06 00:37 | 4.48884 | -75.37285 | 17086 ft | 395 kts | 265° |
| 2026-05-06 00:37 | 4.48649 | -75.39976 | 16938 ft | 381 kts | 265° |
| 2026-05-06 00:37 | 4.48421 | -75.42575 | 16817 ft | 368 kts | 265° |
| 2026-05-06 00:38 | 4.48200 | -75.45083 | 16689 ft | 356 kts | 265° |
| 2026-05-06 00:38 | 4.47986 | -75.47516 | 16561 ft | 344 kts | 265° |
| 2026-05-06 00:38 | 4.47776 | -75.49886 | 16364 ft | 339 kts | 265° |
| 2026-05-06 00:38 | 4.47570 | -75.52220 | 16209 ft | 333 kts | 264° |
| 2026-05-06 00:39 | 4.47407 | -75.54500 | 16077 ft | 323 kts | 270° |
| 2026-05-06 00:39 | 4.47670 | -75.56696 | 15945 ft | 314 kts | 286° |
| 2026-05-06 00:39 | 4.48500 | -75.58682 | 15750 ft | 307 kts | 298° |
| 2026-05-06 00:39 | 4.49493 | -75.60568 | 15466 ft | 305 kts | 298° |
| 2026-05-06 00:40 | 4.50436 | -75.62453 | 15171 ft | 304 kts | 296° |
| 2026-05-06 00:40 | 4.51348 | -75.64354 | 14870 ft | 302 kts | 296° |
| 2026-05-06 00:40 | 4.52243 | -75.66251 | 14594 ft | 300 kts | 296° |
| 2026-05-06 00:40 | 4.53132 | -75.68135 | 14377 ft | 296 kts | 296° |
| 2026-05-06 00:41 | 4.54003 | -75.69977 | 14253 ft | 289 kts | 296° |
| 2026-05-06 00:41 | 4.54856 | -75.71773 | 14123 ft | 282 kts | 296° |
| 2026-05-06 00:41 | 4.55695 | -75.73532 | 13910 ft | 280 kts | 296° |
| 2026-05-06 00:41 | 4.56540 | -75.75294 | 13580 ft | 281 kts | 296° |
| 2026-05-06 00:42 | 4.57383 | -75.77058 | 13288 ft | 280 kts | 296° |
| 2026-05-06 00:42 | 4.58234 | -75.78829 | 12853 ft | 286 kts | 296° |
| 2026-05-06 00:42 | 4.59102 | -75.80632 | 12488 ft | 287 kts | 296° |
| 2026-05-06 00:42 | 4.59968 | -75.82434 | 12173 ft | 286 kts | 296° |
| 2026-05-06 00:43 | 4.60837 | -75.84245 | 11664 ft | 292 kts | 296° |
| 2026-05-06 00:43 | 4.61722 | -75.86089 | 11251 ft | 293 kts | 296° |
| 2026-05-06 00:43 | 4.62604 | -75.87926 | 10883 ft | 291 kts | 295° |
| 2026-05-06 00:43 | 4.63476 | -75.89740 | 10254 ft | 288 kts | 295° |
| 2026-05-06 00:44 | 4.64340 | -75.91542 | 9596 ft | 286 kts | 294° |
| 2026-05-06 00:44 | 4.65346 | -75.93241 | 9070 ft | 280 kts | 309° |
| 2026-05-06 00:44 | 4.66713 | -75.94526 | 8921 ft | 262 kts | 323° |
| 2026-05-06 00:44 | 4.68287 | -75.95379 | 8633 ft | 256 kts | 339° |
| 2026-05-06 00:45 | 4.69973 | -75.95932 | 8381 ft | 253 kts | 341° |
| 2026-05-06 00:45 | 4.71674 | -75.96352 | 8128 ft | 252 kts | 356° |
| 2026-05-06 00:45 | 4.73360 | -75.96018 | 7858 ft | 249 kts | 32° |
| 2026-05-06 00:45 | 4.74499 | -75.94795 | 7715 ft | 237 kts | 67° |
| 2026-05-06 00:46 | 4.75036 | -75.93268 | 7589 ft | 229 kts | 74° |
| 2026-05-06 00:46 | 4.75509 | -75.91770 | 7431 ft | 223 kts | 74° |
| 2026-05-06 00:46 | 4.75982 | -75.90295 | 7199 ft | 222 kts | 73° |
| 2026-05-06 00:46 | 4.76453 | -75.88837 | 7079 ft | 215 kts | 73° |
| 2026-05-06 00:47 | 4.76907 | -75.87433 | 6912 ft | 209 kts | 73° |
| 2026-05-06 00:47 | 4.77350 | -75.86068 | 6644 ft | 203 kts | 73° |
| 2026-05-06 00:47 | 4.77782 | -75.84735 | 6381 ft | 198 kts | 73° |
| 2026-05-06 00:47 | 4.78203 | -75.83434 | 6128 ft | 192 kts | 73° |
| 2026-05-06 00:48 | 4.78599 | -75.82214 | 5893 ft | 174 kts | 74° |
| 2026-05-06 00:48 | 4.78955 | -75.81115 | 5652 ft | 158 kts | 73° |
| 2026-05-06 00:48 | 4.79279 | -75.80113 | 5451 ft | 149 kts | 73° |
| 2026-05-06 00:48 | 4.79594 | -75.79138 | 5257 ft | 145 kts | 73° |
| 2026-05-06 00:49 | 4.79902 | -75.78185 | 5068 ft | 143 kts | 73° |
| 2026-05-06 00:49 | 4.80207 | -75.77246 | 4876 ft | 141 kts | 72° |
| 2026-05-06 00:49 | 4.80504 | -75.76312 | 4683 ft | 140 kts | 73° |
| 2026-05-06 00:49 | 4.80807 | -75.75379 | 4500 ft | 140 kts | 72° |
| 2026-05-06 00:50 | 4.81102 | -75.74458 | 4356 ft | 132 kts | 73° |
| 2026-05-06 00:50 | 4.81321 | -75.73802 | 4398 ft | 64 kts | 72° |
| 2026-05-06 00:50 | 4.81416 | -75.73504 | 4408 ft | 17 kts | 71° |
| 2026-05-06 00:50 | 4.81479 | -75.73476 | 4410 ft | 10 kts | 343° |
| 2026-05-06 00:51 | 4.81515 | -75.73526 | 4409 ft | 9 kts | 259° |
| 2026-05-06 00:51 | 4.81494 | -75.73589 | 4406 ft | 10 kts | 251° |
| 2026-05-06 00:51 | 4.81469 | -75.73661 | 4403 ft | 9 kts | 251° |
| 2026-05-06 00:51 | 4.81463 | -75.73681 | 4403 ft | 0 kts | 252° |
| 2026-05-06 00:52 | 4.81450 | -75.73720 | 4401 ft | 15 kts | 252° |
| 2026-05-06 00:52 | 4.81440 | -75.73774 | 4399 ft | 4 kts | 324° |
| 2026-05-06 00:52 | 4.81472 | -75.73786 | 4399 ft | 5 kts | 344° |
| 2026-05-06 00:53 | 4.81487 | -75.73790 | 4399 ft | 0 kts | 342° |